createdAt,value
2024-03-01T00:01:36.118Z,26.67
2024-03-01T00:04:06.332Z,25.93
2024-03-01T00:06:35.110Z,30.03
2024-03-01T00:09:03.914Z,43.37
2024-03-01T00:11:33.280Z,29.27
2024-03-01T00:14:02.062Z,27.10
2024-03-01T00:16:31.060Z,27.27
2024-03-01T00:18:59.833Z,28.60
2024-03-01T00:21:29.939Z,30.70
2024-03-01T00:23:58.634Z,28.53
2024-03-01T00:26:27.317Z,28.57
2024-03-01T00:28:56.014Z,28.70
2024-03-01T00:31:25.067Z,27.47
2024-03-01T00:33:53.924Z,28.97
2024-03-01T00:36:22.639Z,27.17
2024-03-01T00:38:52.728Z,29.50
2024-03-01T00:41:21.434Z,29.97
2024-03-01T00:43:51.129Z,29.17
2024-03-01T00:46:19.894Z,28.37
2024-03-01T00:48:49.606Z,29.67
2024-03-01T00:51:18.384Z,30.40
2024-03-01T00:53:47.258Z,31.27
2024-03-01T00:56:17.356Z,26.30
2024-03-01T00:58:46.290Z,32.23
2024-03-01T01:01:16.016Z,31.77
2024-03-01T01:03:44.770Z,30.47
2024-03-01T01:06:13.763Z,28.20
2024-03-01T01:08:42.486Z,30.80
2024-03-01T01:11:11.253Z,31.13
2024-03-01T01:13:41.440Z,30.70
2024-03-01T01:16:10.213Z,29.30
2024-03-01T01:18:38.928Z,26.70
2024-03-01T01:21:07.976Z,26.07
2024-03-01T01:23:36.777Z,24.60
2024-03-01T01:26:05.812Z,28.40
2024-03-01T01:28:34.669Z,30.80
2024-03-01T01:31:05.071Z,28.30
2024-03-01T01:33:33.873Z,27.20
2024-03-01T01:36:02.764Z,28.53
2024-03-01T01:38:31.590Z,26.53
2024-03-01T01:41:00.377Z,30.00
2024-03-01T01:43:29.222Z,30.50
2024-03-01T01:45:58.123Z,29.57
2024-03-01T01:48:28.421Z,30.77
2024-03-01T01:50:57.385Z,31.53
2024-03-01T01:53:27.838Z,29.40
2024-03-01T01:56:01.355Z,25.93
2024-03-01T01:58:31.374Z,29.37
2024-03-01T02:01:00.557Z,26.47
2024-03-01T02:03:30.887Z,27.93
2024-03-01T02:05:59.749Z,28.93
2024-03-01T02:08:28.529Z,25.67
2024-03-01T02:10:57.446Z,28.93
2024-03-01T02:13:26.263Z,28.40
2024-03-01T02:15:55.909Z,28.83
2024-03-01T02:18:24.990Z,30.80
2024-03-01T02:21:02.766Z,29.03
2024-03-01T02:23:33.109Z,28.50
2024-03-01T02:26:01.889Z,30.60
2024-03-01T02:28:30.761Z,30.17
2024-03-01T02:31:00.799Z,29.80
2024-03-01T02:33:29.564Z,26.57
2024-03-01T02:35:58.270Z,27.10
2024-03-01T02:38:26.999Z,24.30
2024-03-01T02:40:57.059Z,30.80
2024-03-01T02:43:26.017Z,31.50
2024-03-01T02:45:54.778Z,32.57
2024-03-01T02:48:23.584Z,34.53
2024-03-01T02:50:52.331Z,33.43
2024-03-01T02:53:21.347Z,32.87
2024-03-01T02:55:50.018Z,33.33
2024-03-01T02:58:20.146Z,39.80
2024-03-01T03:03:16.019Z,53.40
2024-03-01T03:05:45.331Z,38.23
2024-03-01T03:08:14.090Z,35.30
2024-03-01T03:10:42.896Z,38.00
2024-03-01T03:13:11.705Z,48.80
2024-03-01T03:15:43.003Z,35.77
2024-03-01T03:18:11.802Z,28.80
2024-03-01T03:20:40.649Z,33.80
2024-03-01T03:23:09.434Z,39.60
2024-03-01T03:25:38.496Z,45.90
2024-03-01T03:28:07.668Z,30.33
2024-03-01T03:30:36.444Z,33.17
2024-03-01T03:33:06.945Z,32.00
2024-03-01T03:35:35.653Z,32.67
2024-03-01T03:38:04.940Z,30.83
2024-03-01T03:40:34.361Z,36.37
2024-03-01T03:43:04.439Z,29.20
2024-03-01T03:45:33.383Z,28.40
2024-03-01T03:48:02.118Z,30.07
2024-03-01T03:50:32.419Z,32.13
2024-03-01T03:53:01.610Z,30.57
2024-03-01T03:55:30.882Z,32.00
2024-03-01T03:57:59.923Z,29.07
2024-03-01T04:00:28.653Z,29.73
2024-03-01T04:02:58.004Z,32.20
2024-03-01T04:05:26.776Z,27.50
2024-03-01T04:07:56.959Z,26.80
2024-03-01T04:10:25.873Z,29.80
2024-03-01T04:12:55.135Z,30.87
2024-03-01T04:15:23.968Z,34.90
2024-03-01T04:17:52.677Z,32.80
2024-03-01T04:20:21.421Z,42.67
2024-03-01T04:22:50.820Z,41.50
2024-03-01T04:25:20.970Z,41.57
2024-03-01T04:27:49.766Z,43.00
2024-03-01T04:30:18.739Z,37.77
2024-03-01T04:32:47.486Z,45.97
2024-03-01T04:35:16.619Z,41.13
2024-03-01T04:37:46.354Z,33.87
2024-03-01T04:40:16.687Z,46.80
2024-03-01T04:42:48.174Z,52.33
2024-03-01T04:45:18.308Z,38.03
2024-03-01T04:47:47.070Z,38.33
2024-03-01T04:50:15.883Z,37.97
2024-03-01T04:52:44.731Z,36.23
2024-03-01T04:55:13.831Z,33.03
2024-03-01T04:57:42.978Z,31.50
2024-03-01T05:00:14.846Z,30.07
2024-03-01T05:02:44.125Z,32.63
2024-03-01T05:05:13.203Z,39.10
2024-03-01T05:07:42.083Z,37.53
2024-03-01T05:10:12.144Z,44.07
2024-03-01T05:12:41.099Z,38.57
2024-03-01T05:15:13.509Z,39.30
2024-03-01T05:17:46.211Z,38.10
2024-03-01T05:20:16.109Z,27.43
2024-03-01T05:22:46.030Z,25.00
2024-03-01T05:25:18.394Z,30.73
2024-03-01T05:27:49.948Z,30.40
2024-03-01T05:30:32.718Z,32.13
2024-03-01T05:33:11.071Z,31.57
2024-03-01T05:35:39.799Z,23.87
2024-03-01T05:38:10.021Z,28.17
2024-03-01T05:40:46.658Z,32.80
2024-03-01T05:43:22.721Z,40.43
2024-03-01T05:45:53.215Z,29.93
2024-03-01T05:48:24.809Z,33.87
2024-03-01T05:50:53.860Z,35.07
2024-03-01T05:53:22.627Z,35.17
2024-03-01T05:55:51.533Z,42.40
2024-03-01T05:58:26.114Z,35.73
2024-03-01T06:00:56.414Z,38.40
2024-03-01T06:03:26.779Z,29.73
2024-03-01T06:05:55.529Z,35.43
2024-03-01T06:08:24.246Z,28.00
2024-03-01T06:10:53.463Z,37.27
2024-03-01T06:13:22.241Z,55.53
2024-03-01T06:15:52.892Z,30.20
2024-03-01T06:18:21.755Z,35.57
2024-03-01T06:20:51.909Z,47.50
2024-03-01T06:23:20.840Z,53.97
2024-03-01T06:25:49.733Z,39.60
2024-03-01T06:28:18.763Z,37.43
2024-03-01T06:30:47.473Z,32.47
2024-03-01T06:33:16.312Z,29.77
2024-03-01T06:35:45.106Z,30.40
2024-03-01T06:38:15.277Z,29.50
2024-03-01T06:40:44.063Z,28.73
2024-03-01T06:43:12.923Z,26.90
2024-03-01T06:45:41.654Z,27.13
2024-03-01T06:48:12.443Z,40.63
2024-03-01T06:50:43.087Z,29.43
2024-03-01T06:53:11.824Z,24.77
2024-03-01T06:55:42.276Z,24.47
2024-03-01T06:58:11.154Z,26.30
2024-03-01T07:00:45.774Z,24.97
2024-03-01T07:03:14.642Z,21.77
2024-03-01T07:05:43.591Z,24.87
2024-03-01T07:08:12.388Z,26.33
2024-03-01T07:10:42.849Z,25.70
2024-03-01T07:13:11.683Z,70.07
2024-03-01T07:15:40.444Z,56.77
2024-03-01T07:18:09.253Z,52.47
2024-03-01T07:20:37.941Z,35.97
2024-03-01T07:23:06.821Z,30.33
2024-03-01T07:25:35.770Z,28.43
2024-03-01T07:28:06.844Z,29.77
2024-03-01T07:30:36.079Z,80.53
2024-03-01T07:33:05.124Z,51.87
2024-03-01T07:35:34.054Z,50.07
2024-03-01T07:38:02.880Z,39.77
2024-03-01T07:40:31.688Z,38.80
2024-03-01T07:43:00.592Z,41.47
2024-03-01T07:45:30.690Z,44.17
2024-03-01T07:47:59.435Z,44.07
2024-03-01T07:50:28.448Z,42.37
2024-03-01T07:52:57.244Z,39.77
2024-03-01T07:55:26.003Z,36.00
2024-03-01T07:57:54.761Z,36.97
2024-03-01T08:00:24.716Z,44.00
2024-03-01T08:03:04.566Z,41.80
2024-03-01T08:05:33.346Z,38.97
2024-03-01T08:08:01.989Z,38.87
2024-03-01T08:10:35.092Z,35.60
2024-03-01T08:13:04.263Z,36.00
2024-03-01T08:15:36.673Z,35.73
2024-03-01T08:18:23.286Z,36.07
2024-03-01T08:20:59.775Z,41.40
2024-03-01T08:23:29.890Z,38.50
2024-03-01T08:25:59.946Z,38.90
2024-03-01T08:28:34.346Z,56.63
2024-03-01T08:31:05.897Z,36.23
2024-03-01T08:33:42.269Z,37.07
2024-03-01T08:36:12.003Z,45.30
2024-03-01T08:39:08.384Z,52.07
2024-03-01T08:41:37.476Z,40.87
2024-03-01T08:44:26.030Z,36.50
2024-03-01T08:46:55.658Z,38.27
2024-03-01T08:50:23.852Z,34.73
2024-03-01T08:52:52.793Z,37.27
2024-03-01T08:55:45.118Z,37.87
2024-03-01T08:58:25.741Z,41.73
2024-03-01T09:00:56.949Z,36.97
2024-03-01T09:03:30.938Z,39.00
2024-03-01T09:06:01.630Z,38.60
2024-03-01T09:08:33.696Z,38.20
2024-03-01T09:11:03.358Z,35.77
2024-03-01T09:13:34.001Z,39.30
2024-03-01T09:16:03.044Z,41.83
2024-03-01T09:18:46.368Z,37.20
2024-03-01T09:21:44.123Z,36.90
2024-03-01T09:24:16.826Z,40.30
2024-03-01T09:26:46.259Z,40.70
2024-03-01T09:29:37.232Z,36.93
2024-03-01T09:32:06.910Z,34.97
2024-03-01T09:34:39.285Z,33.00
2024-03-01T09:37:15.270Z,37.73
2024-03-01T09:39:44.277Z,35.50
2024-03-01T09:42:30.342Z,35.60
2024-03-01T09:45:16.636Z,34.13
2024-03-01T09:48:01.493Z,32.30
2024-03-01T09:50:39.770Z,35.40
2024-03-01T09:53:21.852Z,32.50
2024-03-01T09:55:57.181Z,31.57
2024-03-01T09:58:34.615Z,28.17
2024-03-01T10:01:12.663Z,31.17
2024-03-01T10:03:45.589Z,29.77
2024-03-01T10:06:29.846Z,29.07
2024-03-01T10:09:13.467Z,27.80
2024-03-01T10:12:01.625Z,30.10
2024-03-01T10:14:43.746Z,26.80
2024-03-01T10:17:25.145Z,30.67
2024-03-01T10:20:15.372Z,32.03
2024-03-01T10:22:58.433Z,25.80
2024-03-01T10:25:45.254Z,27.43
2024-03-01T10:28:35.029Z,26.07
2024-03-01T10:31:17.976Z,23.93
2024-03-01T10:33:54.563Z,25.50
2024-03-01T10:36:32.859Z,24.60
2024-03-01T10:39:05.905Z,22.80
2024-03-01T10:41:53.077Z,22.37
2024-03-01T10:44:30.488Z,23.37
2024-03-01T10:47:07.998Z,24.37
2024-03-01T10:49:41.581Z,19.93
2024-03-01T10:52:17.647Z,21.17
2024-03-01T10:54:52.779Z,23.47
2024-03-01T10:57:24.507Z,22.70
2024-03-01T10:59:59.016Z,22.87
2024-03-01T11:02:31.589Z,22.90
2024-03-01T11:05:07.254Z,23.70
2024-03-01T11:07:46.141Z,22.80
2024-03-01T11:10:18.863Z,22.83
2024-03-01T11:12:54.938Z,22.33
2024-03-01T11:15:26.055Z,21.53
2024-03-01T11:17:55.892Z,23.23
2024-03-01T11:20:27.984Z,22.40
2024-03-01T11:23:01.595Z,22.53
2024-03-01T11:25:41.724Z,23.97
2024-03-01T11:28:15.460Z,20.83
2024-03-01T11:30:48.518Z,22.63
2024-03-01T11:33:19.048Z,21.23
2024-03-01T11:35:49.684Z,22.83
2024-03-01T11:38:26.822Z,22.37
2024-03-01T11:41:12.164Z,23.07
2024-03-01T11:44:00.100Z,24.47
2024-03-01T11:46:52.974Z,22.53
2024-03-01T11:49:42.881Z,21.80
2024-03-01T11:52:27.560Z,22.77
2024-03-01T11:55:07.488Z,22.17
2024-03-01T11:57:42.172Z,22.27
2024-03-01T12:00:47.268Z,23.27
2024-03-01T12:03:54.810Z,23.33
2024-03-01T12:06:40.327Z,22.00
2024-03-01T12:09:19.605Z,20.47
2024-03-01T12:12:04.445Z,23.00
2024-03-01T12:14:39.981Z,21.40
2024-03-01T12:17:17.571Z,22.53
2024-03-01T12:19:54.334Z,22.70
2024-03-01T12:22:41.987Z,23.37
2024-03-01T12:25:12.019Z,18.33
2024-03-01T12:27:57.080Z,20.17
2024-03-01T12:30:29.320Z,22.60
2024-03-01T12:33:20.449Z,24.07
2024-03-01T12:35:58.157Z,21.50
2024-03-01T12:38:31.342Z,23.60
2024-03-01T12:41:18.148Z,20.33
2024-03-01T12:44:09.180Z,19.20
2024-03-01T12:46:59.052Z,20.93
2024-03-01T12:49:38.706Z,22.57
2024-03-01T12:52:18.054Z,21.43
2024-03-01T12:54:51.648Z,21.60
2024-03-01T12:57:28.483Z,24.87
2024-03-01T13:00:15.239Z,21.10
2024-03-01T13:03:01.602Z,22.43
2024-03-01T13:05:41.853Z,23.10
2024-03-01T13:08:20.782Z,27.60
2024-03-01T13:10:50.125Z,24.07
2024-03-01T13:13:29.114Z,22.53
2024-03-01T13:16:07.056Z,21.30
2024-03-01T13:18:46.627Z,22.43
2024-03-01T13:21:26.423Z,20.10
2024-03-01T13:24:07.363Z,23.30
2024-03-01T13:26:44.995Z,22.73
2024-03-01T13:29:16.659Z,24.83
2024-03-01T13:32:01.104Z,21.30
2024-03-01T13:34:34.613Z,22.60
2024-03-01T13:37:11.796Z,23.27
2024-03-01T13:39:46.867Z,22.43
2024-03-01T13:42:29.031Z,23.37
2024-03-01T13:45:06.474Z,23.20
2024-03-01T13:47:35.732Z,22.00
2024-03-01T13:50:10.384Z,24.53
2024-03-01T13:52:41.569Z,24.17
2024-03-01T13:55:12.064Z,24.67
2024-03-01T13:57:42.616Z,25.03
2024-03-01T14:00:23.997Z,24.93
2024-03-01T14:02:55.334Z,28.47
2024-03-01T14:05:28.488Z,24.43
2024-03-01T14:08:01.806Z,24.73
2024-03-01T14:10:30.733Z,21.27
2024-03-01T14:12:59.577Z,25.23
2024-03-01T14:15:29.121Z,25.70
2024-03-01T14:17:57.866Z,23.17
2024-03-01T14:20:26.847Z,22.80
2024-03-01T14:22:57.883Z,24.00
2024-03-01T14:25:26.789Z,23.00
2024-03-01T14:27:57.822Z,24.63
2024-03-01T14:30:28.326Z,23.10
2024-03-01T14:33:10.006Z,24.43
2024-03-01T14:35:39.798Z,23.27
2024-03-01T14:38:17.475Z,24.87
2024-03-01T14:40:56.773Z,24.63
2024-03-01T14:43:25.839Z,19.27
2024-03-01T14:45:55.228Z,25.33
2024-03-01T14:48:29.612Z,23.80
2024-03-01T14:50:59.721Z,23.20
2024-03-01T14:53:47.279Z,23.87
2024-03-01T14:56:17.472Z,19.53
2024-03-01T14:58:47.359Z,22.77
2024-03-01T15:01:16.232Z,20.80
2024-03-01T15:03:46.009Z,21.90
2024-03-01T15:06:17.198Z,25.23
2024-03-01T15:08:47.514Z,21.70
2024-03-01T15:11:26.814Z,23.40
2024-03-01T15:13:55.593Z,20.10
2024-03-01T15:16:28.006Z,22.67
2024-03-01T15:18:59.206Z,23.00
2024-03-01T15:21:28.001Z,21.23
2024-03-01T15:24:00.213Z,22.10
2024-03-01T15:26:29.225Z,23.03
2024-03-01T15:28:58.149Z,23.23
2024-03-01T15:31:27.180Z,23.50
2024-03-01T15:33:55.926Z,23.93
2024-03-01T15:36:24.688Z,25.27
2024-03-01T15:38:53.382Z,25.43
2024-03-01T15:41:23.622Z,24.70
2024-03-01T15:43:52.359Z,24.57
2024-03-01T15:46:26.815Z,23.33
2024-03-01T15:48:56.313Z,24.77
2024-03-01T15:51:27.328Z,25.63
2024-03-01T15:53:56.443Z,24.57
2024-03-01T15:56:26.846Z,22.37
2024-03-01T15:58:55.644Z,23.43
2024-03-01T16:01:24.526Z,23.87
2024-03-01T16:03:53.441Z,26.90
2024-03-01T16:06:23.906Z,23.70
2024-03-01T16:08:53.367Z,25.47
2024-03-01T16:11:23.302Z,26.80
2024-03-01T16:13:55.957Z,28.60
2024-03-01T16:16:24.924Z,26.80
2024-03-01T16:18:54.146Z,27.20
2024-03-01T16:21:22.969Z,26.47
2024-03-01T16:23:51.821Z,25.47
2024-03-01T16:26:21.635Z,25.97
2024-03-01T16:28:55.927Z,25.40
2024-03-01T16:31:26.944Z,25.40
2024-03-01T16:33:55.726Z,25.70
2024-03-01T16:36:24.613Z,28.57
2024-03-01T16:38:55.039Z,29.27
2024-03-01T16:41:41.763Z,32.47
2024-03-01T16:44:26.822Z,35.83
2024-03-01T16:46:57.051Z,30.63
2024-03-01T16:49:37.947Z,27.40
2024-03-01T16:52:08.048Z,30.70
2024-03-01T16:54:37.967Z,27.80
2024-03-01T16:57:10.833Z,27.80
2024-03-01T16:59:41.023Z,26.00
2024-03-01T17:02:23.247Z,28.10
2024-03-01T17:04:52.089Z,28.70
2024-03-01T17:07:26.375Z,27.70
2024-03-01T17:09:56.333Z,30.40
2024-03-01T17:12:25.047Z,27.77
2024-03-01T17:14:53.838Z,29.07
2024-03-01T17:17:23.946Z,34.63
2024-03-01T17:19:52.692Z,36.00
2024-03-01T17:22:21.512Z,35.07
2024-03-01T17:24:50.216Z,30.23
2024-03-01T17:27:18.935Z,33.13
2024-03-01T17:29:47.755Z,33.50
2024-03-01T17:32:16.475Z,42.60
2024-03-01T17:34:46.599Z,36.83
2024-03-01T17:37:15.409Z,32.80
2024-03-01T17:39:45.909Z,34.43
2024-03-01T17:42:14.652Z,31.63
2024-03-01T17:44:43.340Z,33.70
2024-03-01T17:47:13.332Z,35.40
2024-03-01T17:49:42.359Z,34.90
2024-03-01T17:52:12.593Z,35.13
2024-03-01T17:54:41.319Z,44.67
2024-03-01T17:57:10.011Z,41.73
2024-03-01T17:59:38.722Z,42.80
2024-03-01T18:02:08.027Z,39.87
2024-03-01T18:04:37.814Z,40.90
2024-03-01T18:07:06.753Z,55.33
2024-03-01T18:09:36.849Z,34.37
2024-03-01T18:12:06.222Z,33.53
2024-03-01T18:14:34.958Z,41.60
2024-03-01T18:17:03.816Z,41.47
2024-03-01T18:19:32.837Z,52.47
2024-03-01T18:22:01.738Z,100.93
2024-03-01T18:24:30.490Z,61.50
2024-03-01T18:27:00.653Z,43.10
2024-03-01T18:29:31.220Z,34.37
2024-03-01T18:32:01.401Z,30.07
2024-03-01T18:34:30.207Z,27.90
2024-03-01T18:36:58.913Z,29.87
2024-03-01T18:39:27.612Z,29.97
2024-03-01T18:41:56.595Z,33.87
2024-03-01T18:44:26.739Z,32.30
2024-03-01T18:46:55.544Z,32.17
2024-03-01T18:49:24.314Z,39.37
2024-03-01T18:51:53.048Z,40.47
2024-03-01T18:54:21.746Z,34.73
2024-03-01T18:56:50.562Z,35.10
2024-03-01T18:59:19.584Z,37.30
2024-03-01T19:01:49.854Z,36.20
2024-03-01T19:04:18.734Z,34.83
2024-03-01T19:06:47.425Z,33.97
2024-03-01T19:09:16.594Z,36.60
2024-03-01T19:11:45.568Z,41.50
2024-03-01T19:14:14.334Z,36.67
2024-03-01T19:16:44.291Z,34.30
2024-03-01T19:19:14.535Z,34.67
2024-03-01T19:21:47.949Z,34.70
2024-03-01T19:24:17.168Z,38.77
2024-03-01T19:26:45.841Z,41.77
2024-03-01T19:29:16.925Z,42.13
2024-03-01T19:31:45.777Z,38.70
2024-03-01T19:34:17.694Z,40.80
2024-03-01T19:36:48.850Z,40.07
2024-03-01T19:39:19.909Z,38.90
2024-03-01T19:41:51.401Z,39.37
2024-03-01T19:44:20.244Z,40.03
2024-03-01T19:46:48.963Z,41.07
2024-03-01T19:49:20.027Z,44.13
2024-03-01T19:51:49.113Z,42.17
2024-03-01T19:54:19.862Z,44.10
2024-03-01T19:56:48.589Z,44.60
2024-03-01T19:59:17.325Z,47.70
2024-03-01T20:01:48.331Z,47.20
2024-03-01T20:04:18.530Z,45.10
2024-03-01T20:06:47.250Z,46.20
2024-03-01T20:09:17.978Z,42.27
2024-03-01T20:11:49.264Z,45.60
2024-03-01T20:14:19.576Z,42.63
2024-03-01T20:16:48.275Z,44.90
2024-03-01T20:19:18.355Z,43.87
2024-03-01T20:21:47.183Z,43.30
2024-03-01T20:24:16.820Z,45.90
2024-03-01T20:26:45.755Z,44.33
2024-03-01T20:29:15.575Z,43.97
2024-03-01T20:31:45.189Z,41.00
2024-03-01T20:34:14.223Z,42.97
2024-03-01T20:36:44.380Z,43.57
2024-03-01T20:39:13.568Z,42.33
2024-03-01T20:41:42.411Z,40.57
2024-03-01T20:44:11.213Z,38.97
2024-03-01T20:46:40.643Z,44.27
2024-03-01T20:49:09.425Z,40.30
2024-03-01T20:51:38.165Z,39.10
2024-03-01T20:54:11.681Z,43.27
2024-03-01T20:56:40.425Z,41.27
2024-03-01T20:59:09.172Z,43.80
2024-03-01T21:01:38.039Z,41.83
2024-03-01T21:04:07.639Z,44.60
2024-03-01T21:06:36.979Z,42.67
2024-03-01T21:09:07.239Z,45.37
2024-03-01T21:11:36.431Z,43.93
2024-03-01T21:14:06.314Z,44.90
2024-03-01T21:16:35.720Z,46.03
2024-03-01T21:19:04.513Z,43.97
2024-03-01T21:22:51.718Z,44.57
2024-03-01T21:24:23.899Z,45.00
2024-03-01T21:26:53.247Z,45.13
2024-03-01T21:29:23.335Z,43.43
2024-03-01T21:31:52.526Z,44.50
2024-03-01T21:34:21.254Z,38.07
2024-03-01T21:36:52.074Z,42.53
2024-03-01T21:39:22.316Z,43.30
2024-03-01T21:41:51.186Z,46.83
2024-03-01T21:44:19.910Z,41.73
2024-03-01T21:46:48.659Z,39.17
2024-03-01T21:49:17.704Z,36.67
2024-03-01T21:51:47.027Z,38.73
2024-03-01T21:54:17.520Z,37.93
2024-03-01T21:56:47.706Z,40.17
2024-03-01T21:59:17.379Z,39.70
2024-03-01T22:01:46.202Z,42.30
2024-03-01T22:04:15.970Z,40.20
2024-03-01T22:06:44.828Z,40.13
2024-03-01T22:09:15.732Z,41.47
2024-03-01T22:11:44.926Z,42.77
2024-03-01T22:14:16.773Z,41.30
2024-03-01T22:16:45.758Z,43.10
2024-03-01T22:19:14.606Z,41.30
2024-03-01T22:21:43.537Z,41.20
2024-03-01T22:24:12.513Z,42.50
2024-03-01T22:26:43.219Z,46.07
2024-03-01T22:29:12.015Z,44.73
2024-03-01T22:31:42.913Z,45.00
2024-03-01T22:34:12.032Z,41.47
2024-03-01T22:36:41.012Z,44.00
2024-03-01T22:39:10.671Z,42.07
2024-03-01T22:41:39.609Z,42.73
2024-03-01T22:44:08.509Z,40.57
2024-03-01T22:46:37.619Z,39.60
2024-03-01T22:49:10.632Z,39.67
2024-03-01T22:51:39.619Z,40.37
2024-03-01T22:54:12.015Z,40.13
2024-03-01T22:56:41.124Z,40.53
2024-03-01T22:59:38.737Z,43.50
2024-03-01T23:02:11.799Z,43.80
2024-03-01T23:04:41.949Z,41.87
2024-03-01T23:07:11.812Z,43.40
2024-03-01T23:09:42.847Z,42.37
2024-03-01T23:12:13.205Z,45.10
2024-03-01T23:14:45.991Z,42.93
2024-03-01T23:17:14.928Z,46.37
2024-03-01T23:19:45.999Z,43.57
2024-03-01T23:22:16.091Z,43.47
2024-03-01T23:24:45.254Z,46.60
2024-03-01T23:27:14.224Z,46.60
2024-03-01T23:29:43.409Z,47.50
2024-03-01T23:32:12.367Z,46.50
2024-03-01T23:34:41.164Z,43.60
2024-03-01T23:37:11.321Z,45.47
2024-03-01T23:39:40.216Z,44.50
2024-03-01T23:42:09.143Z,50.63
2024-03-01T23:44:37.932Z,52.30
2024-03-01T23:47:07.046Z,47.40
2024-03-01T23:49:36.087Z,50.50
2024-03-01T23:52:04.989Z,47.00
2024-03-01T23:54:35.413Z,49.20
2024-03-01T23:57:04.411Z,44.33
2024-03-01T23:59:33.191Z,48.80
